sensor_id;sensor_type;location;lat;lon;timestamp;P1;durP1;ratioP1;P2;durP2;ratioP2
13607;SDS011;6875;50.852;5.672;2023-03-01T00:00:59;10.53;;;6.13;;
13607;SDS011;6875;50.852;5.672;2023-03-01T00:03:26;9.50;;;6.20;;
13607;SDS011;6875;50.852;5.672;2023-03-01T00:05:53;9.43;;;6.83;;
13607;SDS011;6875;50.852;5.672;2023-03-01T00:08:19;8.30;;;5.90;;
13607;SDS011;6875;50.852;5.672;2023-03-01T00:10:46;8.07;;;6.17;;
13607;SDS011;6875;50.852;5.672;2023-03-01T00:13:12;8.30;;;6.33;;
13607;SDS011;6875;50.852;5.672;2023-03-01T00:15:39;9.77;;;6.47;;
13607;SDS011;6875;50.852;5.672;2023-03-01T00:18:07;9.83;;;6.40;;
13607;SDS011;6875;50.852;5.672;2023-03-01T00:20:34;8.97;;;6.00;;
13607;SDS011;6875;50.852;5.672;2023-03-01T00:23:01;11.37;;;7.67;;
13607;SDS011;6875;50.852;5.672;2023-03-01T00:25:27;13.23;;;6.77;;
13607;SDS011;6875;50.852;5.672;2023-03-01T00:27:54;7.83;;;6.00;;
13607;SDS011;6875;50.852;5.672;2023-03-01T00:30:20;8.90;;;6.63;;
13607;SDS011;6875;50.852;5.672;2023-03-01T00:32:47;9.63;;;6.77;;
13607;SDS011;6875;50.852;5.672;2023-03-01T00:35:15;8.57;;;6.77;;
13607;SDS011;6875;50.852;5.672;2023-03-01T00:37:41;8.73;;;6.50;;
13607;SDS011;6875;50.852;5.672;2023-03-01T00:40:08;9.97;;;6.50;;
13607;SDS011;6875;50.852;5.672;2023-03-01T00:42:36;8.80;;;6.20;;
13607;SDS011;6875;50.852;5.672;2023-03-01T00:45:03;10.13;;;6.77;;
13607;SDS011;6875;50.852;5.672;2023-03-01T00:47:30;7.90;;;6.10;;
13607;SDS011;6875;50.852;5.672;2023-03-01T00:49:57;11.03;;;6.00;;
13607;SDS011;6875;50.852;5.672;2023-03-01T00:52:25;8.90;;;6.53;;
13607;SDS011;6875;50.852;5.672;2023-03-01T00:54:52;7.53;;;6.10;;
13607;SDS011;6875;50.852;5.672;2023-03-01T00:57:18;11.17;;;6.43;;
13607;SDS011;6875;50.852;5.672;2023-03-01T00:59:45;8.80;;;6.37;;
13607;SDS011;6875;50.852;5.672;2023-03-01T01:02:11;11.00;;;6.27;;
13607;SDS011;6875;50.852;5.672;2023-03-01T01:04:38;9.37;;;6.63;;
13607;SDS011;6875;50.852;5.672;2023-03-01T01:07:04;9.07;;;6.53;;
13607;SDS011;6875;50.852;5.672;2023-03-01T01:09:32;9.83;;;6.33;;
13607;SDS011;6875;50.852;5.672;2023-03-01T01:11:59;9.10;;;5.87;;
13607;SDS011;6875;50.852;5.672;2023-03-01T01:14:26;9.97;;;6.37;;
13607;SDS011;6875;50.852;5.672;2023-03-01T01:16:52;10.00;;;6.20;;
13607;SDS011;6875;50.852;5.672;2023-03-01T01:19:19;8.13;;;5.83;;
13607;SDS011;6875;50.852;5.672;2023-03-01T01:21:46;10.70;;;5.70;;
13607;SDS011;6875;50.852;5.672;2023-03-01T01:24:13;9.53;;;7.00;;
13607;SDS011;6875;50.852;5.672;2023-03-01T01:26:42;10.13;;;6.43;;
13607;SDS011;6875;50.852;5.672;2023-03-01T01:29:09;7.67;;;5.97;;
13607;SDS011;6875;50.852;5.672;2023-03-01T01:31:36;9.30;;;6.03;;
13607;SDS011;6875;50.852;5.672;2023-03-01T01:34:04;9.30;;;6.57;;
13607;SDS011;6875;50.852;5.672;2023-03-01T01:36:33;12.10;;;7.13;;
13607;SDS011;6875;50.852;5.672;2023-03-01T01:39:00;11.27;;;6.40;;
13607;SDS011;6875;50.852;5.672;2023-03-01T01:41:27;11.97;;;6.93;;
13607;SDS011;6875;50.852;5.672;2023-03-01T01:44:13;7.67;;;6.10;;
13607;SDS011;6875;50.852;5.672;2023-03-01T01:46:41;11.90;;;6.10;;
13607;SDS011;6875;50.852;5.672;2023-03-01T01:49:13;11.30;;;6.93;;
13607;SDS011;6875;50.852;5.672;2023-03-01T01:51:43;8.67;;;5.97;;
13607;SDS011;6875;50.852;5.672;2023-03-01T01:54:14;11.67;;;6.07;;
13607;SDS011;6875;50.852;5.672;2023-03-01T01:56:44;8.47;;;6.23;;
13607;SDS011;6875;50.852;5.672;2023-03-01T01:59:14;9.17;;;6.50;;
13607;SDS011;6875;50.852;5.672;2023-03-01T02:01:41;10.00;;;6.63;;
13607;SDS011;6875;50.852;5.672;2023-03-01T02:04:08;9.33;;;6.97;;
13607;SDS011;6875;50.852;5.672;2023-03-01T02:06:36;10.40;;;6.40;;
13607;SDS011;6875;50.852;5.672;2023-03-01T02:09:04;8.30;;;6.37;;
13607;SDS011;6875;50.852;5.672;2023-03-01T02:11:33;9.70;;;7.07;;
13607;SDS011;6875;50.852;5.672;2023-03-01T02:14:02;7.70;;;6.13;;
13607;SDS011;6875;50.852;5.672;2023-03-01T02:16:31;9.13;;;7.37;;
13607;SDS011;6875;50.852;5.672;2023-03-01T02:18:57;10.07;;;6.87;;
13607;SDS011;6875;50.852;5.672;2023-03-01T02:21:30;11.57;;;7.03;;
13607;SDS011;6875;50.852;5.672;2023-03-01T02:24:05;11.63;;;6.90;;
13607;SDS011;6875;50.852;5.672;2023-03-01T02:26:40;10.17;;;6.83;;
13607;SDS011;6875;50.852;5.672;2023-03-01T02:29:10;11.50;;;6.70;;
13607;SDS011;6875;50.852;5.672;2023-03-01T02:31:36;10.70;;;6.90;;
13607;SDS011;6875;50.852;5.672;2023-03-01T02:34:11;9.10;;;6.30;;
13607;SDS011;6875;50.852;5.672;2023-03-01T02:36:39;9.93;;;7.20;;
13607;SDS011;6875;50.852;5.672;2023-03-01T02:39:07;10.20;;;7.33;;
13607;SDS011;6875;50.852;5.672;2023-03-01T02:41:39;10.37;;;6.70;;
13607;SDS011;6875;50.852;5.672;2023-03-01T02:44:07;10.30;;;7.17;;
13607;SDS011;6875;50.852;5.672;2023-03-01T02:46:41;11.53;;;7.73;;
13607;SDS011;6875;50.852;5.672;2023-03-01T02:49:15;8.97;;;6.67;;
13607;SDS011;6875;50.852;5.672;2023-03-01T02:51:46;11.80;;;7.20;;
13607;SDS011;6875;50.852;5.672;2023-03-01T02:54:21;11.70;;;7.43;;
13607;SDS011;6875;50.852;5.672;2023-03-01T02:56:51;10.40;;;6.37;;
13607;SDS011;6875;50.852;5.672;2023-03-01T02:59:20;11.40;;;7.37;;
13607;SDS011;6875;50.852;5.672;2023-03-01T03:01:47;12.00;;;7.90;;
13607;SDS011;6875;50.852;5.672;2023-03-01T03:04:14;11.10;;;7.23;;
13607;SDS011;6875;50.852;5.672;2023-03-01T03:06:43;10.53;;;6.97;;
13607;SDS011;6875;50.852;5.672;2023-03-01T03:09:10;9.83;;;6.07;;
13607;SDS011;6875;50.852;5.672;2023-03-01T03:11:37;10.47;;;6.10;;
13607;SDS011;6875;50.852;5.672;2023-03-01T03:14:04;9.33;;;6.43;;
13607;SDS011;6875;50.852;5.672;2023-03-01T03:16:38;8.70;;;6.33;;
13607;SDS011;6875;50.852;5.672;2023-03-01T03:19:06;10.13;;;6.90;;
13607;SDS011;6875;50.852;5.672;2023-03-01T03:21:32;11.17;;;6.57;;
13607;SDS011;6875;50.852;5.672;2023-03-01T03:23:59;8.40;;;5.87;;
13607;SDS011;6875;50.852;5.672;2023-03-01T03:26:25;11.53;;;6.40;;
13607;SDS011;6875;50.852;5.672;2023-03-01T03:28:52;9.37;;;6.83;;
13607;SDS011;6875;50.852;5.672;2023-03-01T03:31:19;9.17;;;6.30;;
13607;SDS011;6875;50.852;5.672;2023-03-01T03:33:47;8.47;;;6.70;;
13607;SDS011;6875;50.852;5.672;2023-03-01T03:36:15;11.30;;;6.83;;
13607;SDS011;6875;50.852;5.672;2023-03-01T03:38:42;9.73;;;6.67;;
13607;SDS011;6875;50.852;5.672;2023-03-01T03:41:09;9.10;;;6.37;;
13607;SDS011;6875;50.852;5.672;2023-03-01T03:43:36;10.23;;;7.03;;
13607;SDS011;6875;50.852;5.672;2023-03-01T03:46:04;9.10;;;6.47;;
13607;SDS011;6875;50.852;5.672;2023-03-01T03:48:30;9.37;;;6.87;;
13607;SDS011;6875;50.852;5.672;2023-03-01T03:50:58;8.47;;;6.63;;
13607;SDS011;6875;50.852;5.672;2023-03-01T03:53:26;9.47;;;6.40;;
13607;SDS011;6875;50.852;5.672;2023-03-01T03:55:54;8.97;;;6.10;;
13607;SDS011;6875;50.852;5.672;2023-03-01T03:58:21;9.00;;;6.23;;
13607;SDS011;6875;50.852;5.672;2023-03-01T04:00:49;8.43;;;6.37;;
13607;SDS011;6875;50.852;5.672;2023-03-01T04:03:18;9.40;;;5.90;;
13607;SDS011;6875;50.852;5.672;2023-03-01T04:05:46;8.43;;;6.27;;
13607;SDS011;6875;50.852;5.672;2023-03-01T04:08:14;7.60;;;5.83;;
13607;SDS011;6875;50.852;5.672;2023-03-01T04:10:42;9.83;;;6.43;;
13607;SDS011;6875;50.852;5.672;2023-03-01T04:13:10;8.60;;;5.85;;
13607;SDS011;6875;50.852;5.672;2023-03-01T04:15:38;11.43;;;6.60;;
13607;SDS011;6875;50.852;5.672;2023-03-01T04:18:05;7.60;;;5.67;;
13607;SDS011;6875;50.852;5.672;2023-03-01T04:20:33;8.37;;;5.77;;
13607;SDS011;6875;50.852;5.672;2023-03-01T04:23:01;10.10;;;6.17;;
13607;SDS011;6875;50.852;5.672;2023-03-01T04:25:37;9.40;;;5.83;;
13607;SDS011;6875;50.852;5.672;2023-03-01T04:28:03;8.27;;;5.83;;
13607;SDS011;6875;50.852;5.672;2023-03-01T04:30:30;8.30;;;5.73;;
13607;SDS011;6875;50.852;5.672;2023-03-01T04:33:00;7.17;;;5.70;;
13607;SDS011;6875;50.852;5.672;2023-03-01T04:35:27;6.93;;;5.30;;
13607;SDS011;6875;50.852;5.672;2023-03-01T04:37:54;8.50;;;5.53;;
13607;SDS011;6875;50.852;5.672;2023-03-01T04:40:21;7.53;;;4.93;;
13607;SDS011;6875;50.852;5.672;2023-03-01T04:42:49;6.63;;;4.97;;
13607;SDS011;6875;50.852;5.672;2023-03-01T04:45:15;6.83;;;5.13;;
13607;SDS011;6875;50.852;5.672;2023-03-01T04:47:42;8.20;;;4.77;;
13607;SDS011;6875;50.852;5.672;2023-03-01T04:50:11;6.13;;;4.90;;
13607;SDS011;6875;50.852;5.672;2023-03-01T04:52:38;6.03;;;4.37;;
13607;SDS011;6875;50.852;5.672;2023-03-01T04:55:05;9.23;;;5.20;;
13607;SDS011;6875;50.852;5.672;2023-03-01T04:57:33;8.75;;;5.18;;
13607;SDS011;6875;50.852;5.672;2023-03-01T05:00:02;12.13;;;5.50;;
13607;SDS011;6875;50.852;5.672;2023-03-01T05:02:44;8.07;;;5.30;;
13607;SDS011;6875;50.852;5.672;2023-03-01T05:05:13;8.17;;;5.50;;
13607;SDS011;6875;50.852;5.672;2023-03-01T05:07:39;8.03;;;5.33;;
13607;SDS011;6875;50.852;5.672;2023-03-01T05:10:06;8.20;;;5.13;;
13607;SDS011;6875;50.852;5.672;2023-03-01T05:12:34;10.43;;;6.03;;
13607;SDS011;6875;50.852;5.672;2023-03-01T05:15:04;7.03;;;5.33;;
13607;SDS011;6875;50.852;5.672;2023-03-01T05:17:32;8.53;;;5.73;;
13607;SDS011;6875;50.852;5.672;2023-03-01T05:19:58;7.67;;;5.57;;
13607;SDS011;6875;50.852;5.672;2023-03-01T05:22:26;10.00;;;5.75;;
13607;SDS011;6875;50.852;5.672;2023-03-01T05:24:52;8.23;;;5.40;;
13607;SDS011;6875;50.852;5.672;2023-03-01T05:27:20;8.23;;;5.85;;
13607;SDS011;6875;50.852;5.672;2023-03-01T05:29:47;8.07;;;5.68;;
13607;SDS011;6875;50.852;5.672;2023-03-01T05:32:15;8.77;;;5.77;;
13607;SDS011;6875;50.852;5.672;2023-03-01T05:34:42;9.37;;;6.23;;
13607;SDS011;6875;50.852;5.672;2023-03-01T05:37:09;8.55;;;5.88;;
13607;SDS011;6875;50.852;5.672;2023-03-01T05:39:35;8.90;;;6.13;;
13607;SDS011;6875;50.852;5.672;2023-03-01T05:42:02;9.23;;;5.35;;
13607;SDS011;6875;50.852;5.672;2023-03-01T05:44:28;9.73;;;5.80;;
13607;SDS011;6875;50.852;5.672;2023-03-01T05:46:55;8.17;;;5.57;;
13607;SDS011;6875;50.852;5.672;2023-03-01T05:49:23;8.43;;;5.43;;
13607;SDS011;6875;50.852;5.672;2023-03-01T05:51:51;10.87;;;5.77;;
13607;SDS011;6875;50.852;5.672;2023-03-01T05:54:19;7.10;;;5.70;;
13607;SDS011;6875;50.852;5.672;2023-03-01T05:56:47;11.87;;;5.77;;
13607;SDS011;6875;50.852;5.672;2023-03-01T05:59:14;7.33;;;5.53;;
13607;SDS011;6875;50.852;5.672;2023-03-01T06:01:41;7.57;;;5.43;;
13607;SDS011;6875;50.852;5.672;2023-03-01T06:04:08;8.30;;;6.03;;
13607;SDS011;6875;50.852;5.672;2023-03-01T06:06:36;9.10;;;5.60;;
13607;SDS011;6875;50.852;5.672;2023-03-01T06:09:03;10.32;;;5.80;;
13607;SDS011;6875;50.852;5.672;2023-03-01T06:11:33;9.13;;;5.88;;
13607;SDS011;6875;50.852;5.672;2023-03-01T06:13:59;8.50;;;5.95;;
13607;SDS011;6875;50.852;5.672;2023-03-01T06:16:26;11.38;;;6.45;;
13607;SDS011;6875;50.852;5.672;2023-03-01T06:18:53;9.20;;;6.78;;
13607;SDS011;6875;50.852;5.672;2023-03-01T06:21:19;11.45;;;5.90;;
13607;SDS011;6875;50.852;5.672;2023-03-01T06:23:47;8.57;;;5.50;;
13607;SDS011;6875;50.852;5.672;2023-03-01T06:26:14;14.02;;;6.40;;
13607;SDS011;6875;50.852;5.672;2023-03-01T06:28:40;10.43;;;6.13;;
13607;SDS011;6875;50.852;5.672;2023-03-01T06:31:07;12.73;;;6.20;;
13607;SDS011;6875;50.852;5.672;2023-03-01T06:33:34;8.70;;;5.80;;
13607;SDS011;6875;50.852;5.672;2023-03-01T06:36:01;8.48;;;5.68;;
13607;SDS011;6875;50.852;5.672;2023-03-01T06:38:27;13.27;;;5.55;;
13607;SDS011;6875;50.852;5.672;2023-03-01T06:40:55;8.25;;;5.63;;
13607;SDS011;6875;50.852;5.672;2023-03-01T06:43:22;10.05;;;6.32;;
13607;SDS011;6875;50.852;5.672;2023-03-01T06:45:49;9.45;;;5.97;;
13607;SDS011;6875;50.852;5.672;2023-03-01T06:48:16;14.03;;;7.27;;
13607;SDS011;6875;50.852;5.672;2023-03-01T06:50:43;10.67;;;5.70;;
13607;SDS011;6875;50.852;5.672;2023-03-01T06:53:09;10.03;;;6.53;;
13607;SDS011;6875;50.852;5.672;2023-03-01T06:55:36;12.30;;;6.77;;
13607;SDS011;6875;50.852;5.672;2023-03-01T06:58:04;8.00;;;5.97;;
13607;SDS011;6875;50.852;5.672;2023-03-01T07:00:31;10.67;;;7.30;;
13607;SDS011;6875;50.852;5.672;2023-03-01T07:02:58;9.67;;;6.30;;
13607;SDS011;6875;50.852;5.672;2023-03-01T07:05:25;10.57;;;6.20;;
13607;SDS011;6875;50.852;5.672;2023-03-01T07:07:52;9.97;;;6.53;;
13607;SDS011;6875;50.852;5.672;2023-03-01T07:10:20;7.60;;;6.03;;
13607;SDS011;6875;50.852;5.672;2023-03-01T07:12:47;9.77;;;6.40;;
13607;SDS011;6875;50.852;5.672;2023-03-01T07:15:15;10.73;;;6.40;;
13607;SDS011;6875;50.852;5.672;2023-03-01T07:17:41;8.73;;;6.20;;
13607;SDS011;6875;50.852;5.672;2023-03-01T07:20:09;10.13;;;6.30;;
13607;SDS011;6875;50.852;5.672;2023-03-01T07:22:39;9.47;;;6.40;;
13607;SDS011;6875;50.852;5.672;2023-03-01T07:25:06;9.80;;;6.53;;
13607;SDS011;6875;50.852;5.672;2023-03-01T07:27:33;14.40;;;7.43;;
13607;SDS011;6875;50.852;5.672;2023-03-01T07:29:59;12.17;;;7.53;;
13607;SDS011;6875;50.852;5.672;2023-03-01T07:32:27;9.87;;;6.43;;
13607;SDS011;6875;50.852;5.672;2023-03-01T07:34:54;9.17;;;6.80;;
13607;SDS011;6875;50.852;5.672;2023-03-01T07:37:20;10.17;;;6.30;;
13607;SDS011;6875;50.852;5.672;2023-03-01T07:39:47;9.10;;;6.63;;
13607;SDS011;6875;50.852;5.672;2023-03-01T07:42:13;15.63;;;7.10;;
13607;SDS011;6875;50.852;5.672;2023-03-01T07:44:40;10.83;;;6.53;;
13607;SDS011;6875;50.852;5.672;2023-03-01T07:47:06;8.00;;;6.00;;
13607;SDS011;6875;50.852;5.672;2023-03-01T07:49:35;9.13;;;6.03;;
13607;SDS011;6875;50.852;5.672;2023-03-01T07:52:01;10.50;;;6.00;;
13607;SDS011;6875;50.852;5.672;2023-03-01T07:54:28;7.93;;;5.80;;
13607;SDS011;6875;50.852;5.672;2023-03-01T07:56:55;8.93;;;5.97;;
13607;SDS011;6875;50.852;5.672;2023-03-01T07:59:22;9.77;;;6.50;;
13607;SDS011;6875;50.852;5.672;2023-03-01T08:01:53;10.50;;;6.03;;
13607;SDS011;6875;50.852;5.672;2023-03-01T08:04:20;8.10;;;5.77;;
13607;SDS011;6875;50.852;5.672;2023-03-01T08:06:48;9.43;;;5.77;;
13607;SDS011;6875;50.852;5.672;2023-03-01T08:09:15;11.63;;;6.83;;
13607;SDS011;6875;50.852;5.672;2023-03-01T08:11:41;10.63;;;6.17;;
13607;SDS011;6875;50.852;5.672;2023-03-01T08:14:08;8.63;;;6.00;;
13607;SDS011;6875;50.852;5.672;2023-03-01T08:16:35;7.87;;;6.00;;
13607;SDS011;6875;50.852;5.672;2023-03-01T08:19:03;7.50;;;5.43;;
13607;SDS011;6875;50.852;5.672;2023-03-01T08:21:31;10.17;;;6.30;;
13607;SDS011;6875;50.852;5.672;2023-03-01T08:24:01;12.63;;;6.63;;
13607;SDS011;6875;50.852;5.672;2023-03-01T08:26:27;10.93;;;6.23;;
13607;SDS011;6875;50.852;5.672;2023-03-01T08:28:54;10.07;;;5.70;;
13607;SDS011;6875;50.852;5.672;2023-03-01T08:31:21;13.10;;;5.83;;
13607;SDS011;6875;50.852;5.672;2023-03-01T08:33:51;10.60;;;6.17;;
13607;SDS011;6875;50.852;5.672;2023-03-01T08:36:20;11.30;;;5.40;;
13607;SDS011;6875;50.852;5.672;2023-03-01T08:38:47;7.73;;;5.60;;
13607;SDS011;6875;50.852;5.672;2023-03-01T08:41:15;8.00;;;5.83;;
13607;SDS011;6875;50.852;5.672;2023-03-01T08:43:42;8.83;;;6.00;;
13607;SDS011;6875;50.852;5.672;2023-03-01T08:46:09;13.27;;;5.77;;
13607;SDS011;6875;50.852;5.672;2023-03-01T08:48:35;19.57;;;7.10;;
13607;SDS011;6875;50.852;5.672;2023-03-01T08:51:08;9.63;;;5.93;;
13607;SDS011;6875;50.852;5.672;2023-03-01T08:53:36;11.83;;;5.47;;
13607;SDS011;6875;50.852;5.672;2023-03-01T08:56:03;15.87;;;8.63;;
13607;SDS011;6875;50.852;5.672;2023-03-01T08:58:31;8.37;;;5.63;;
13607;SDS011;6875;50.852;5.672;2023-03-01T09:00:58;7.27;;;5.83;;
13607;SDS011;6875;50.852;5.672;2023-03-01T09:03:25;7.93;;;5.57;;
13607;SDS011;6875;50.852;5.672;2023-03-01T09:05:52;7.17;;;5.10;;
13607;SDS011;6875;50.852;5.672;2023-03-01T09:08:19;9.03;;;6.03;;
13607;SDS011;6875;50.852;5.672;2023-03-01T09:10:46;10.47;;;6.20;;
13607;SDS011;6875;50.852;5.672;2023-03-01T09:13:12;9.73;;;6.20;;
13607;SDS011;6875;50.852;5.672;2023-03-01T09:15:40;8.87;;;5.53;;
13607;SDS011;6875;50.852;5.672;2023-03-01T09:18:07;11.27;;;5.83;;
13607;SDS011;6875;50.852;5.672;2023-03-01T09:20:33;10.43;;;6.07;;
13607;SDS011;6875;50.852;5.672;2023-03-01T09:23:00;9.43;;;6.00;;
13607;SDS011;6875;50.852;5.672;2023-03-01T09:25:27;8.27;;;5.90;;
13607;SDS011;6875;50.852;5.672;2023-03-01T09:27:54;7.37;;;5.37;;
13607;SDS011;6875;50.852;5.672;2023-03-01T09:30:21;7.43;;;5.37;;
13607;SDS011;6875;50.852;5.672;2023-03-01T09:32:50;8.03;;;5.13;;
13607;SDS011;6875;50.852;5.672;2023-03-01T09:35:17;8.57;;;5.60;;
13607;SDS011;6875;50.852;5.672;2023-03-01T09:37:45;10.67;;;5.50;;
13607;SDS011;6875;50.852;5.672;2023-03-01T09:40:12;8.20;;;5.10;;
13607;SDS011;6875;50.852;5.672;2023-03-01T09:42:46;7.93;;;5.53;;
13607;SDS011;6875;50.852;5.672;2023-03-01T09:45:20;5.87;;;4.70;;
13607;SDS011;6875;50.852;5.672;2023-03-01T09:47:53;8.97;;;5.57;;
13607;SDS011;6875;50.852;5.672;2023-03-01T09:50:21;8.03;;;5.30;;
13607;SDS011;6875;50.852;5.672;2023-03-01T09:52:48;9.70;;;5.33;;
13607;SDS011;6875;50.852;5.672;2023-03-01T09:55:20;8.30;;;5.33;;
13607;SDS011;6875;50.852;5.672;2023-03-01T09:57:53;8.87;;;5.50;;
13607;SDS011;6875;50.852;5.672;2023-03-01T10:00:33;9.87;;;5.60;;
13607;SDS011;6875;50.852;5.672;2023-03-01T10:03:08;9.17;;;5.03;;
13607;SDS011;6875;50.852;5.672;2023-03-01T10:05:41;7.83;;;5.37;;
13607;SDS011;6875;50.852;5.672;2023-03-01T10:08:24;8.33;;;5.03;;
13607;SDS011;6875;50.852;5.672;2023-03-01T10:10:56;9.63;;;5.03;;
13607;SDS011;6875;50.852;5.672;2023-03-01T10:13:24;7.90;;;5.03;;
13607;SDS011;6875;50.852;5.672;2023-03-01T10:15:53;8.50;;;5.07;;
13607;SDS011;6875;50.852;5.672;2023-03-01T10:18:24;6.90;;;4.90;;
13607;SDS011;6875;50.852;5.672;2023-03-01T10:20:53;7.90;;;4.73;;
13607;SDS011;6875;50.852;5.672;2023-03-01T10:23:23;8.43;;;4.90;;
13607;SDS011;6875;50.852;5.672;2023-03-01T10:25:54;7.47;;;5.37;;
13607;SDS011;6875;50.852;5.672;2023-03-01T10:28:30;8.77;;;4.67;;
13607;SDS011;6875;50.852;5.672;2023-03-01T10:30:59;6.53;;;4.50;;
13607;SDS011;6875;50.852;5.672;2023-03-01T10:33:29;7.63;;;4.83;;
13607;SDS011;6875;50.852;5.672;2023-03-01T10:35:57;6.03;;;4.50;;
13607;SDS011;6875;50.852;5.672;2023-03-01T10:38:24;8.23;;;5.30;;
13607;SDS011;6875;50.852;5.672;2023-03-01T10:40:52;5.73;;;4.57;;
13607;SDS011;6875;50.852;5.672;2023-03-01T10:43:22;5.90;;;4.67;;
13607;SDS011;6875;50.852;5.672;2023-03-01T10:45:49;5.77;;;4.60;;
13607;SDS011;6875;50.852;5.672;2023-03-01T10:48:17;6.63;;;4.77;;
13607;SDS011;6875;50.852;5.672;2023-03-01T10:50:49;8.90;;;5.27;;
13607;SDS011;6875;50.852;5.672;2023-03-01T10:53:20;7.73;;;5.67;;
13607;SDS011;6875;50.852;5.672;2023-03-01T10:55:56;7.40;;;4.77;;
13607;SDS011;6875;50.852;5.672;2023-03-01T10:58:23;6.13;;;4.77;;
13607;SDS011;6875;50.852;5.672;2023-03-01T11:00:51;8.53;;;5.33;;
13607;SDS011;6875;50.852;5.672;2023-03-01T11:03:19;5.97;;;4.47;;
13607;SDS011;6875;50.852;5.672;2023-03-01T11:05:52;5.67;;;4.80;;
13607;SDS011;6875;50.852;5.672;2023-03-01T11:08:31;6.70;;;4.57;;
13607;SDS011;6875;50.852;5.672;2023-03-01T11:13:52;9.17;;;5.20;;
13607;SDS011;6875;50.852;5.672;2023-03-01T11:16:24;7.30;;;5.03;;
13607;SDS011;6875;50.852;5.672;2023-03-01T11:18:56;6.90;;;4.87;;
13607;SDS011;6875;50.852;5.672;2023-03-01T11:21:25;7.67;;;5.27;;
13607;SDS011;6875;50.852;5.672;2023-03-01T11:23:53;7.23;;;5.00;;
13607;SDS011;6875;50.852;5.672;2023-03-01T11:26:19;7.47;;;5.13;;
13607;SDS011;6875;50.852;5.672;2023-03-01T11:28:48;8.77;;;5.20;;
13607;SDS011;6875;50.852;5.672;2023-03-01T11:31:16;8.43;;;5.60;;
13607;SDS011;6875;50.852;5.672;2023-03-01T11:33:44;6.17;;;4.87;;
13607;SDS011;6875;50.852;5.672;2023-03-01T11:36:16;5.97;;;4.67;;
13607;SDS011;6875;50.852;5.672;2023-03-01T11:38:50;8.83;;;4.87;;
13607;SDS011;6875;50.852;5.672;2023-03-01T11:41:17;6.27;;;5.13;;
13607;SDS011;6875;50.852;5.672;2023-03-01T11:43:47;6.13;;;4.47;;
13607;SDS011;6875;50.852;5.672;2023-03-01T11:49:43;5.83;;;4.77;;
13607;SDS011;6875;50.852;5.672;2023-03-01T11:52:20;7.30;;;4.90;;
13607;SDS011;6875;50.852;5.672;2023-03-01T11:54:56;5.97;;;4.90;;
13607;SDS011;6875;50.852;5.672;2023-03-01T11:57:35;6.77;;;4.73;;
13607;SDS011;6875;50.852;5.672;2023-03-01T12:00:16;5.70;;;4.60;;
13607;SDS011;6875;50.852;5.672;2023-03-01T12:05:49;6.10;;;4.70;;
13607;SDS011;6875;50.852;5.672;2023-03-01T12:08:32;6.77;;;4.90;;
13607;SDS011;6875;50.852;5.672;2023-03-01T12:11:03;7.60;;;5.13;;
13607;SDS011;6875;50.852;5.672;2023-03-01T12:13:43;5.83;;;4.83;;
13607;SDS011;6875;50.852;5.672;2023-03-01T12:16:20;8.33;;;4.80;;
13607;SDS011;6875;50.852;5.672;2023-03-01T12:19:04;6.77;;;4.70;;
13607;SDS011;6875;50.852;5.672;2023-03-01T12:22:01;8.03;;;5.10;;
13607;SDS011;6875;50.852;5.672;2023-03-01T12:24:38;8.13;;;4.77;;
13607;SDS011;6875;50.852;5.672;2023-03-01T12:27:19;9.30;;;4.70;;
13607;SDS011;6875;50.852;5.672;2023-03-01T12:29:58;5.73;;;5.13;;
13607;SDS011;6875;50.852;5.672;2023-03-01T12:32:33;7.17;;;4.93;;
13607;SDS011;6875;50.852;5.672;2023-03-01T12:35:16;7.70;;;5.20;;
13607;SDS011;6875;50.852;5.672;2023-03-01T12:37:54;9.07;;;4.77;;
13607;SDS011;6875;50.852;5.672;2023-03-01T12:40:27;6.50;;;4.60;;
13607;SDS011;6875;50.852;5.672;2023-03-01T12:43:17;5.70;;;4.67;;
13607;SDS011;6875;50.852;5.672;2023-03-01T12:45:54;7.43;;;5.40;;
13607;SDS011;6875;50.852;5.672;2023-03-01T12:48:30;8.43;;;5.27;;
13607;SDS011;6875;50.852;5.672;2023-03-01T12:51:01;9.10;;;5.20;;
13607;SDS011;6875;50.852;5.672;2023-03-01T12:53:29;6.57;;;4.77;;
13607;SDS011;6875;50.852;5.672;2023-03-01T12:55:59;6.03;;;4.77;;
13607;SDS011;6875;50.852;5.672;2023-03-01T12:58:29;6.23;;;4.97;;
13607;SDS011;6875;50.852;5.672;2023-03-01T13:01:11;9.70;;;5.50;;
13607;SDS011;6875;50.852;5.672;2023-03-01T13:03:55;7.80;;;5.33;;
13607;SDS011;6875;50.852;5.672;2023-03-01T13:06:41;7.23;;;5.13;;
13607;SDS011;6875;50.852;5.672;2023-03-01T13:09:14;5.73;;;5.07;;
13607;SDS011;6875;50.852;5.672;2023-03-01T13:11:46;6.93;;;4.40;;
13607;SDS011;6875;50.852;5.672;2023-03-01T13:17:04;5.50;;;4.50;;
13607;SDS011;6875;50.852;5.672;2023-03-01T13:19:33;5.30;;;4.27;;
13607;SDS011;6875;50.852;5.672;2023-03-01T13:22:01;6.63;;;4.87;;
13607;SDS011;6875;50.852;5.672;2023-03-01T13:24:52;8.57;;;4.70;;
13607;SDS011;6875;50.852;5.672;2023-03-01T13:27:27;6.10;;;4.30;;
13607;SDS011;6875;50.852;5.672;2023-03-01T13:29:57;7.47;;;4.50;;
13607;SDS011;6875;50.852;5.672;2023-03-01T13:32:29;7.30;;;4.77;;
13607;SDS011;6875;50.852;5.672;2023-03-01T13:35:00;6.90;;;5.10;;
13607;SDS011;6875;50.852;5.672;2023-03-01T13:37:33;6.67;;;4.00;;
13607;SDS011;6875;50.852;5.672;2023-03-01T13:40:56;6.10;;;4.27;;
13607;SDS011;6875;50.852;5.672;2023-03-01T13:43:23;6.60;;;4.77;;
13607;SDS011;6875;50.852;5.672;2023-03-01T13:45:56;6.70;;;5.00;;
13607;SDS011;6875;50.852;5.672;2023-03-01T13:48:23;6.67;;;4.40;;
13607;SDS011;6875;50.852;5.672;2023-03-01T13:50:52;6.03;;;4.40;;
13607;SDS011;6875;50.852;5.672;2023-03-01T13:53:24;5.17;;;4.17;;
13607;SDS011;6875;50.852;5.672;2023-03-01T13:55:52;6.53;;;4.57;;
13607;SDS011;6875;50.852;5.672;2023-03-01T13:58:22;4.77;;;4.00;;
13607;SDS011;6875;50.852;5.672;2023-03-01T14:01:00;8.30;;;4.80;;
13607;SDS011;6875;50.852;5.672;2023-03-01T14:03:29;5.93;;;4.40;;
13607;SDS011;6875;50.852;5.672;2023-03-01T14:05:58;8.03;;;4.57;;
13607;SDS011;6875;50.852;5.672;2023-03-01T14:08:27;6.37;;;4.37;;
13607;SDS011;6875;50.852;5.672;2023-03-01T14:13:48;5.53;;;4.67;;
13607;SDS011;6875;50.852;5.672;2023-03-01T14:16:27;7.03;;;4.63;;
13607;SDS011;6875;50.852;5.672;2023-03-01T14:19:03;6.50;;;4.43;;
13607;SDS011;6875;50.852;5.672;2023-03-01T14:21:39;5.83;;;4.70;;
13607;SDS011;6875;50.852;5.672;2023-03-01T14:24:06;7.30;;;4.43;;
13607;SDS011;6875;50.852;5.672;2023-03-01T14:26:44;5.77;;;4.40;;
13607;SDS011;6875;50.852;5.672;2023-03-01T14:29:23;9.27;;;4.13;;
13607;SDS011;6875;50.852;5.672;2023-03-01T14:31:51;5.10;;;4.30;;
13607;SDS011;6875;50.852;5.672;2023-03-01T14:34:19;4.97;;;3.93;;
13607;SDS011;6875;50.852;5.672;2023-03-01T14:36:47;5.53;;;4.00;;
13607;SDS011;6875;50.852;5.672;2023-03-01T14:39:17;6.30;;;4.27;;
13607;SDS011;6875;50.852;5.672;2023-03-01T14:41:46;6.17;;;4.47;;
13607;SDS011;6875;50.852;5.672;2023-03-01T14:44:14;6.00;;;4.00;;
13607;SDS011;6875;50.852;5.672;2023-03-01T14:46:43;6.77;;;3.90;;
13607;SDS011;6875;50.852;5.672;2023-03-01T14:49:12;5.03;;;3.97;;
13607;SDS011;6875;50.852;5.672;2023-03-01T14:51:41;5.07;;;4.00;;
13607;SDS011;6875;50.852;5.672;2023-03-01T14:54:18;9.03;;;4.50;;
13607;SDS011;6875;50.852;5.672;2023-03-01T14:56:47;7.03;;;4.17;;
13607;SDS011;6875;50.852;5.672;2023-03-01T14:59:13;9.70;;;4.53;;
13607;SDS011;6875;50.852;5.672;2023-03-01T15:01:40;6.70;;;4.33;;
13607;SDS011;6875;50.852;5.672;2023-03-01T15:04:09;5.47;;;4.07;;
13607;SDS011;6875;50.852;5.672;2023-03-01T15:06:39;4.80;;;3.80;;
13607;SDS011;6875;50.852;5.672;2023-03-01T15:09:06;7.43;;;3.83;;
13607;SDS011;6875;50.852;5.672;2023-03-01T15:11:34;4.20;;;3.77;;
13607;SDS011;6875;50.852;5.672;2023-03-01T15:14:01;7.20;;;4.10;;
13607;SDS011;6875;50.852;5.672;2023-03-01T15:16:52;5.97;;;4.40;;
13607;SDS011;6875;50.852;5.672;2023-03-01T15:19:20;6.47;;;4.50;;
13607;SDS011;6875;50.852;5.672;2023-03-01T15:21:48;7.03;;;4.70;;
13607;SDS011;6875;50.852;5.672;2023-03-01T15:24:16;5.40;;;4.17;;
13607;SDS011;6875;50.852;5.672;2023-03-01T15:26:49;6.27;;;4.03;;